sensor_id;sensor_type;location;lat;lon;timestamp;pressure;altitude;pressure_sealevel;temperature;humidity
9189;BME280;34313;50.780;6.084;2023-02-21T00:02:27;100037.34;;;7.63;100.00
9189;BME280;34313;50.780;6.084;2023-02-21T00:05:11;100044.75;;;7.52;100.00
9189;BME280;34313;50.780;6.084;2023-02-21T00:07:55;100042.34;;;7.46;100.00
9189;BME280;34313;50.780;6.084;2023-02-21T00:10:39;100052.31;;;7.36;100.00
9189;BME280;34313;50.780;6.084;2023-02-21T00:13:23;100037.56;;;7.33;100.00
9189;BME280;34313;50.780;6.084;2023-02-21T00:16:07;100048.28;;;7.51;100.00
9189;BME280;34313;50.780;6.084;2023-02-21T00:18:51;100034.59;;;7.43;100.00
9189;BME280;34313;50.780;6.084;2023-02-21T00:21:35;100046.63;;;7.48;100.00
9189;BME280;34313;50.780;6.084;2023-02-21T00:24:19;100048.19;;;7.54;100.00
9189;BME280;34313;50.780;6.084;2023-02-21T00:27:03;100051.50;;;7.59;100.00
9189;BME280;34313;50.780;6.084;2023-02-21T00:29:49;100034.34;;;7.50;100.00
9189;BME280;34313;50.780;6.084;2023-02-21T00:32:34;100048.28;;;7.51;100.00
9189;BME280;34313;50.780;6.084;2023-02-21T00:35:18;100047.81;;;7.39;100.00
9189;BME280;34313;50.780;6.084;2023-02-21T00:38:03;100046.88;;;7.42;100.00
9189;BME280;34313;50.780;6.084;2023-02-21T00:40:47;100044.94;;;7.47;100.00
9189;BME280;34313;50.780;6.084;2023-02-21T00:43:33;100044.69;;;7.30;100.00
9189;BME280;34313;50.780;6.084;2023-02-21T00:46:18;100052.75;;;7.24;100.00
9189;BME280;34313;50.780;6.084;2023-02-21T00:49:03;100041.38;;;7.25;100.00
9189;BME280;34313;50.780;6.084;2023-02-21T00:51:47;100033.28;;;7.31;100.00
9189;BME280;34313;50.780;6.084;2023-02-21T00:54:31;100034.53;;;7.21;100.00
9189;BME280;34313;50.780;6.084;2023-02-21T00:57:16;100032.75;;;7.21;100.00
9189;BME280;34313;50.780;6.084;2023-02-21T01:00:00;100036.81;;;7.30;100.00
9189;BME280;34313;50.780;6.084;2023-02-21T01:02:43;100038.25;;;7.13;100.00
9189;BME280;34313;50.780;6.084;2023-02-21T01:05:28;100028.13;;;7.04;100.00
9189;BME280;34313;50.780;6.084;2023-02-21T01:08:12;100023.41;;;7.14;100.00
9189;BME280;34313;50.780;6.084;2023-02-21T01:10:56;100015.16;;;7.25;100.00
9189;BME280;34313;50.780;6.084;2023-02-21T01:13:41;100015.16;;;7.25;100.00
9189;BME280;34313;50.780;6.084;2023-02-21T01:16:30;100023.19;;;7.20;100.00
9189;BME280;34313;50.780;6.084;2023-02-21T01:19:14;100023.91;;;7.24;100.00
9189;BME280;34313;50.780;6.084;2023-02-21T01:21:59;100019.06;;;7.13;100.00
9189;BME280;34313;50.780;6.084;2023-02-21T01:24:43;100020.75;;;7.15;100.00
9189;BME280;34313;50.780;6.084;2023-02-21T01:27:26;100017.44;;;7.10;100.00
9189;BME280;34313;50.780;6.084;2023-02-21T01:30:11;100022.78;;;7.07;100.00
9189;BME280;34313;50.780;6.084;2023-02-21T01:32:54;100011.59;;;7.02;100.00
9189;BME280;34313;50.780;6.084;2023-02-21T01:35:39;100023.50;;;7.11;100.00
9189;BME280;34313;50.780;6.084;2023-02-21T01:38:23;100026.88;;;7.14;100.00
9189;BME280;34313;50.780;6.084;2023-02-21T01:41:07;100022.78;;;7.07;100.00
9189;BME280;34313;50.780;6.084;2023-02-21T01:44:06;100032.91;;;7.16;100.00
9189;BME280;34313;50.780;6.084;2023-02-21T01:46:50;100014.81;;;7.10;100.00
9189;BME280;34313;50.780;6.084;2023-02-21T01:49:37;100027.53;;;7.21;100.00
9189;BME280;34313;50.780;6.084;2023-02-21T01:52:22;100023.13;;;7.22;100.00
9189;BME280;34313;50.780;6.084;2023-02-21T01:55:08;100023.81;;;7.27;100.00
9189;BME280;34313;50.780;6.084;2023-02-21T01:57:53;100028.13;;;7.29;100.00
9189;BME280;34313;50.780;6.084;2023-02-21T02:00:38;100027.22;;;7.29;100.00
9189;BME280;34313;50.780;6.084;2023-02-21T02:03:23;100027.81;;;7.37;100.00
9189;BME280;34313;50.780;6.084;2023-02-21T02:06:09;100015.59;;;7.36;100.00
9189;BME280;34313;50.780;6.084;2023-02-21T02:08:55;100020.84;;;7.36;100.00
9189;BME280;34313;50.780;6.084;2023-02-21T02:31:23;100014.75;;;7.35;100.00
9189;BME280;34313;50.780;6.084;2023-02-21T02:36:52;100015.75;;;7.33;100.00
9189;BME280;34313;50.780;6.084;2023-02-21T02:39:32;100012.47;;;7.26;100.00
9189;BME280;34313;50.780;6.084;2023-02-21T02:44:41;100006.09;;;7.33;100.00
9189;BME280;34313;50.780;6.084;2023-02-21T02:47:17;100005.25;;;7.33;100.00
9189;BME280;34313;50.780;6.084;2023-02-21T02:49:44;99997.84;;;7.21;100.00
9189;BME280;34313;50.780;6.084;2023-02-21T02:52:10;100000.28;;;7.25;100.00
9189;BME280;34313;50.780;6.084;2023-02-21T02:54:36;99979.53;;;7.19;100.00
9189;BME280;34313;50.780;6.084;2023-02-21T02:57:03;99993.88;;;7.32;100.00
9189;BME280;34313;50.780;6.084;2023-02-21T02:59:34;99971.66;;;7.19;100.00
9189;BME280;34313;50.780;6.084;2023-02-21T03:02:33;99984.47;;;7.27;100.00
9189;BME280;34313;50.780;6.084;2023-02-21T03:11:17;99979.53;;;7.19;100.00
9189;BME280;34313;50.780;6.084;2023-02-21T03:13:48;99980.03;;;7.29;100.00
9189;BME280;34313;50.780;6.084;2023-02-21T03:16:22;99983.66;;;7.26;100.00
9189;BME280;34313;50.780;6.084;2023-02-21T03:19:02;99957.28;;;7.06;100.00
9189;BME280;34313;50.780;6.084;2023-02-21T03:21:42;99977.75;;;7.19;100.00
9189;BME280;34313;50.780;6.084;2023-02-21T03:24:12;99976.88;;;7.21;100.00
9189;BME280;34313;50.780;6.084;2023-02-21T03:26:41;99975.09;;;7.21;100.00
9189;BME280;34313;50.780;6.084;2023-02-21T03:29:09;99972.38;;;7.24;100.00
9189;BME280;34313;50.780;6.084;2023-02-21T03:31:40;99976.78;;;7.22;100.00
9189;BME280;34313;50.780;6.084;2023-02-21T03:34:08;99971.66;;;7.19;100.00
9189;BME280;34313;50.780;6.084;2023-02-21T03:36:35;99969.91;;;7.19;100.00
9189;BME280;34313;50.780;6.084;2023-02-21T03:39:01;99972.53;;;7.19;100.00
9189;BME280;34313;50.780;6.084;2023-02-21T03:41:27;99959.38;;;7.43;100.00
9189;BME280;34313;50.780;6.084;2023-02-21T03:43:52;99955.88;;;7.21;100.00
9189;BME280;34313;50.780;6.084;2023-02-21T03:46:18;99963.66;;;7.22;100.00
9189;BME280;34313;50.780;6.084;2023-02-21T03:48:43;99961.94;;;7.23;100.00
9189;BME280;34313;50.780;6.084;2023-02-21T03:51:09;99957.41;;;7.26;100.00
9189;BME280;34313;50.780;6.084;2023-02-21T03:53:34;99967.84;;;7.28;100.00
9189;BME280;34313;50.780;6.084;2023-02-21T03:56:00;99946.31;;;7.19;100.00
9189;BME280;34313;50.780;6.084;2023-02-21T03:58:25;99959.41;;;7.19;100.00
9189;BME280;34313;50.780;6.084;2023-02-21T04:00:50;99964.56;;;7.23;100.00
9189;BME280;34313;50.780;6.084;2023-02-21T04:03:18;99961.19;;;7.19;100.00
9189;BME280;34313;50.780;6.084;2023-02-21T04:05:43;99950.97;;;7.11;100.00
9189;BME280;34313;50.780;6.084;2023-02-21T04:08:08;99953.44;;;7.16;100.00
9189;BME280;34313;50.780;6.084;2023-02-21T04:10:34;99951.53;;;7.19;100.00
9189;BME280;34313;50.780;6.084;2023-02-21T04:12:59;99950.84;;;7.14;100.00
9189;BME280;34313;50.780;6.084;2023-02-21T04:15:24;99960.56;;;7.12;100.00
9189;BME280;34313;50.780;6.084;2023-02-21T04:17:50;99949.44;;;7.06;100.00
9189;BME280;34313;50.780;6.084;2023-02-21T04:20:15;99942.31;;;7.09;100.00
9189;BME280;34313;50.780;6.084;2023-02-21T04:22:41;99939.78;;;7.06;100.00
9189;BME280;34313;50.780;6.084;2023-02-21T04:25:06;99946.88;;;7.04;100.00
9189;BME280;34313;50.780;6.084;2023-02-21T04:27:32;99945.47;;;6.94;100.00
9189;BME280;34313;50.780;6.084;2023-02-21T04:29:59;99950.41;;;7.03;100.00
9189;BME280;34313;50.780;6.084;2023-02-21T04:32:24;99952.56;;;6.92;100.00
9189;BME280;34313;50.780;6.084;2023-02-21T04:34:49;99939.41;;;6.93;100.00
9189;BME280;34313;50.780;6.084;2023-02-21T04:37:16;99947.09;;;6.98;100.00
9189;BME280;34313;50.780;6.084;2023-02-21T04:39:41;99943.84;;;6.91;100.00
9189;BME280;34313;50.780;6.084;2023-02-21T04:42:07;99949.94;;;6.92;100.00
9189;BME280;34313;50.780;6.084;2023-02-21T04:44:33;99945.28;;;7.00;100.00
9189;BME280;34313;50.780;6.084;2023-02-21T04:46:59;99941.81;;;6.99;100.00
9189;BME280;34313;50.780;6.084;2023-02-21T04:49:24;99933.56;;;6.85;100.00
9189;BME280;34313;50.780;6.084;2023-02-21T04:51:52;99943.00;;;6.91;100.00
9189;BME280;34313;50.780;6.084;2023-02-21T04:54:17;99933.38;;;6.91;100.00
9189;BME280;34313;50.780;6.084;2023-02-21T04:56:43;99941.16;;;6.93;100.00
9189;BME280;34313;50.780;6.084;2023-02-21T04:59:08;99928.28;;;6.87;100.00
9189;BME280;34313;50.780;6.084;2023-02-21T05:01:33;99927.31;;;6.89;100.00
9189;BME280;34313;50.780;6.084;2023-02-21T05:03:59;99916.31;;;6.79;100.00
9189;BME280;34313;50.780;6.084;2023-02-21T05:06:26;99930.34;;;6.78;100.00
9189;BME280;34313;50.780;6.084;2023-02-21T05:08:51;99933.63;;;6.84;100.00
9189;BME280;34313;50.780;6.084;2023-02-21T05:11:18;99932.78;;;6.83;100.00
9189;BME280;34313;50.780;6.084;2023-02-21T05:13:45;99919.28;;;6.70;100.00
9189;BME280;34313;50.780;6.084;2023-02-21T05:16:10;99938.25;;;6.77;100.00
9189;BME280;34313;50.780;6.084;2023-02-21T05:18:35;99934.19;;;6.68;100.00
9189;BME280;34313;50.780;6.084;2023-02-21T05:21:04;99933.16;;;6.72;100.00
9189;BME280;34313;50.780;6.084;2023-02-21T05:23:30;99921.16;;;6.67;100.00
9189;BME280;34313;50.780;6.084;2023-02-21T05:26:00;99936.69;;;6.71;100.00
9189;BME280;34313;50.780;6.084;2023-02-21T05:28:26;99931.38;;;6.73;100.00
9189;BME280;34313;50.780;6.084;2023-02-21T05:30:51;99924.56;;;6.69;100.00
9189;BME280;34313;50.780;6.084;2023-02-21T05:33:17;99926.47;;;6.63;100.00
9189;BME280;34313;50.780;6.084;2023-02-21T05:35:42;99926.59;;;6.60;100.00
9189;BME280;34313;50.780;6.084;2023-02-21T05:38:10;99922.28;;;6.59;100.00
9189;BME280;34313;50.780;6.084;2023-02-21T05:40:36;99925.88;;;6.55;100.00
9189;BME280;34313;50.780;6.084;2023-02-21T05:43:01;99924.16;;;6.56;100.00
9189;BME280;34313;50.780;6.084;2023-02-21T05:45:26;99922.44;;;6.55;100.00
9189;BME280;34313;50.780;6.084;2023-02-21T05:47:52;99932.09;;;6.53;100.00
9189;BME280;34313;50.780;6.084;2023-02-21T05:50:20;99927.94;;;6.47;100.00
9189;BME280;34313;50.780;6.084;2023-02-21T05:52:45;99934.72;;;6.53;100.00
9189;BME280;34313;50.780;6.084;2023-02-21T05:55:11;99920.13;;;6.46;100.00
9189;BME280;34313;50.780;6.084;2023-02-21T05:57:37;99932.09;;;6.53;100.00
9189;BME280;34313;50.780;6.084;2023-02-21T06:00:03;99933.75;;;6.55;100.00
9189;BME280;34313;50.780;6.084;2023-02-21T06:02:29;99931.31;;;6.51;100.00
9189;BME280;34313;50.780;6.084;2023-02-21T06:04:54;99936.53;;;6.51;100.00
9189;BME280;34313;50.780;6.084;2023-02-21T06:07:20;99938.13;;;6.55;100.00
9189;BME280;34313;50.780;6.084;2023-02-21T06:09:45;99928.63;;;6.52;100.00
9189;BME280;34313;50.780;6.084;2023-02-21T06:12:10;99935.63;;;6.52;100.00
9189;BME280;34313;50.780;6.084;2023-02-21T06:14:35;99947.59;;;6.59;100.00
9189;BME280;34313;50.780;6.084;2023-02-21T06:17:01;99943.44;;;6.53;100.00
9189;BME280;34313;50.780;6.084;2023-02-21T06:19:27;99943.38;;;6.55;100.00
9189;BME280;34313;50.780;6.084;2023-02-21T06:21:52;99938.97;;;6.55;100.00
9189;BME280;34313;50.780;6.084;2023-02-21T06:24:17;99942.34;;;6.59;100.00
9189;BME280;34313;50.780;6.084;2023-02-21T06:26:43;99945.19;;;6.53;100.00
9189;BME280;34313;50.780;6.084;2023-02-21T06:29:10;99949.47;;;6.55;100.00
9189;BME280;34313;50.780;6.084;2023-02-21T06:31:35;99952.91;;;6.57;100.00
9189;BME280;34313;50.780;6.084;2023-02-21T06:34:01;99951.28;;;6.53;100.00
9189;BME280;34313;50.780;6.084;2023-02-21T06:36:27;99952.91;;;6.57;100.00
9189;BME280;34313;50.780;6.084;2023-02-21T06:38:54;99950.34;;;6.56;100.00
9189;BME280;34313;50.780;6.084;2023-02-21T06:41:26;99945.16;;;6.54;100.00
9189;BME280;34313;50.780;6.084;2023-02-21T06:43:52;99944.41;;;6.51;100.00
9189;BME280;34313;50.780;6.084;2023-02-21T06:46:20;99943.28;;;6.58;100.00
9189;BME280;34313;50.780;6.084;2023-02-21T06:48:46;99947.53;;;6.60;100.00
9189;BME280;34313;50.780;6.084;2023-02-21T06:51:11;99948.13;;;6.69;100.00
9189;BME280;34313;50.780;6.084;2023-02-21T06:53:39;99942.84;;;6.70;100.00
9189;BME280;34313;50.780;6.084;2023-02-21T06:56:05;99958.50;;;6.72;100.00
9189;BME280;34313;50.780;6.084;2023-02-21T06:58:30;99944.44;;;6.74;100.00
9189;BME280;34313;50.780;6.084;2023-02-21T07:00:55;99942.84;;;6.70;100.00
9189;BME280;34313;50.780;6.084;2023-02-21T07:03:21;99951.41;;;6.75;100.00
9189;BME280;34313;50.780;6.084;2023-02-21T07:05:46;99948.69;;;6.78;100.00
9189;BME280;34313;50.780;6.084;2023-02-21T07:08:11;99947.06;;;6.74;100.00
9189;BME280;34313;50.780;6.084;2023-02-21T07:10:37;99945.94;;;6.81;100.00
9189;BME280;34313;50.780;6.084;2023-02-21T07:13:02;99954.03;;;6.75;100.00
9189;BME280;34313;50.780;6.084;2023-02-21T07:15:28;99958.03;;;6.86;100.00
9189;BME280;34313;50.780;6.084;2023-02-21T07:17:53;99954.75;;;6.79;100.00
9189;BME280;34313;50.780;6.084;2023-02-21T07:20:18;99949.41;;;6.82;100.00
9189;BME280;34313;50.780;6.084;2023-02-21T07:22:44;99944.22;;;6.80;100.00
9189;BME280;34313;50.780;6.084;2023-02-21T07:25:17;99945.66;;;6.89;100.00
9189;BME280;34313;50.780;6.084;2023-02-21T07:27:43;99962.28;;;6.88;100.00
9189;BME280;34313;50.780;6.084;2023-02-21T07:30:10;99964.00;;;6.89;100.00
9189;BME280;34313;50.780;6.084;2023-02-21T07:32:37;99956.19;;;6.88;100.00
9189;BME280;34313;50.780;6.084;2023-02-21T07:35:03;99947.41;;;6.89;100.00
9189;BME280;34313;50.780;6.084;2023-02-21T07:37:28;99951.66;;;6.93;100.00
9189;BME280;34313;50.780;6.084;2023-02-21T07:39:54;99946.28;;;6.96;100.00
9189;BME280;34313;50.780;6.084;2023-02-21T07:42:19;99952.06;;;7.06;100.00
9189;BME280;34313;50.780;6.084;2023-02-21T07:44:45;99938.38;;;6.97;100.00
9189;BME280;34313;50.780;6.084;2023-02-21T07:47:10;99955.25;;;7.14;100.00
9189;BME280;34313;50.780;6.084;2023-02-21T07:49:39;99955.81;;;7.22;100.00
9189;BME280;34313;50.780;6.084;2023-02-21T07:52:06;99956.38;;;7.30;100.00
9189;BME280;34313;50.780;6.084;2023-02-21T07:54:32;99956.38;;;7.30;100.00
9189;BME280;34313;50.780;6.084;2023-02-21T07:56:58;99967.34;;;7.42;100.00
9189;BME280;34313;50.780;6.084;2023-02-21T07:59:23;99970.13;;;7.37;100.00
9189;BME280;34313;50.780;6.084;2023-02-21T08:01:49;99957.06;;;7.35;100.00
9189;BME280;34313;50.780;6.084;2023-02-21T08:04:14;99964.63;;;7.43;100.00
9189;BME280;34313;50.780;6.084;2023-02-21T08:06:44;99954.41;;;7.37;100.00
9189;BME280;34313;50.780;6.084;2023-02-21T08:09:10;99960.25;;;7.44;100.00
9189;BME280;34313;50.780;6.084;2023-02-21T08:11:35;99961.91;;;7.46;100.00
9189;BME280;34313;50.780;6.084;2023-02-21T08:14:01;99946.47;;;7.38;100.00
9189;BME280;34313;50.780;6.084;2023-02-21T08:16:27;99959.06;;;7.52;100.00
9189;BME280;34313;50.780;6.084;2023-02-21T08:18:52;99959.16;;;7.49;100.00
9189;BME280;34313;50.780;6.084;2023-02-21T08:21:18;99961.25;;;7.63;100.00
9189;BME280;34313;50.780;6.084;2023-02-21T08:23:43;99953.44;;;7.62;100.00
9189;BME280;34313;50.780;6.084;2023-02-21T08:26:08;99953.44;;;7.62;100.00
9189;BME280;34313;50.780;6.084;2023-02-21T08:28:34;99956.28;;;7.79;100.00
9189;BME280;34313;50.780;6.084;2023-02-21T08:31:01;99959.44;;;7.87;100.00
9189;BME280;34313;50.780;6.084;2023-02-21T08:33:27;99959.47;;;8.08;100.00
9189;BME280;34313;50.780;6.084;2023-02-21T08:35:55;99948.91;;;8.09;100.00
9189;BME280;34313;50.780;6.084;2023-02-21T08:38:21;99938.47;;;8.08;100.00
9189;BME280;34313;50.780;6.084;2023-02-21T08:40:46;99944.94;;;8.21;100.00
9189;BME280;34313;50.780;6.084;2023-02-21T08:43:11;99952.56;;;8.27;100.00
9189;BME280;34313;50.780;6.084;2023-02-21T08:45:37;99941.81;;;8.33;100.00
9189;BME280;34313;50.780;6.084;2023-02-21T08:48:02;99921.19;;;8.24;100.00
9189;BME280;34313;50.780;6.084;2023-02-21T08:50:28;99948.16;;;8.50;100.00
9189;BME280;34313;50.780;6.084;2023-02-21T08:52:54;99949.59;;;8.57;100.00
9189;BME280;34313;50.780;6.084;2023-02-21T08:55:20;99948.75;;;8.57;100.00
9189;BME280;34313;50.780;6.084;2023-02-21T08:57:47;99948.50;;;8.63;100.00
9189;BME280;34313;50.780;6.084;2023-02-21T09:00:14;99937.50;;;8.74;100.00
9189;BME280;34313;50.780;6.084;2023-02-21T09:02:40;99921.03;;;8.70;100.00
9189;BME280;34313;50.780;6.084;2023-02-21T09:05:40;99932.63;;;8.85;100.00
9189;BME280;34313;50.780;6.084;2023-02-21T09:07:59;99932.03;;;8.78;100.00
9189;BME280;34313;50.780;6.084;2023-02-21T09:10:27;99927.53;;;8.82;100.00
9189;BME280;34313;50.780;6.084;2023-02-21T09:12:53;99925.44;;;8.88;100.00
9189;BME280;34313;50.780;6.084;2023-02-21T09:15:18;99931.16;;;8.98;100.00
9189;BME280;34313;50.780;6.084;2023-02-21T09:17:44;99932.88;;;9.18;100.00
9189;BME280;34313;50.780;6.084;2023-02-21T09:20:14;99924.16;;;9.37;100.00
9189;BME280;34313;50.780;6.084;2023-02-21T09:22:44;99917.03;;;9.39;99.57
9189;BME280;34313;50.780;6.084;2023-02-21T09:25:10;99896.00;;;9.39;100.00
9189;BME280;34313;50.780;6.084;2023-02-21T09:27:40;99915.81;;;9.65;100.00
9189;BME280;34313;50.780;6.084;2023-02-21T09:30:24;99910.00;;;9.95;100.00
9189;BME280;34313;50.780;6.084;2023-02-21T09:32:51;99903.66;;;10.16;97.97
9189;BME280;34313;50.780;6.084;2023-02-21T09:35:16;99913.78;;;10.43;94.71
9189;BME280;34313;50.780;6.084;2023-02-21T09:37:43;99914.34;;;10.66;94.90
9189;BME280;34313;50.780;6.084;2023-02-21T09:42:57;99912.06;;;10.93;88.94
9189;BME280;34313;50.780;6.084;2023-02-21T09:45:25;99901.53;;;10.75;87.66
9189;BME280;34313;50.780;6.084;2023-02-21T09:47:57;99910.91;;;10.81;88.08
9189;BME280;34313;50.780;6.084;2023-02-21T09:50:28;99919.84;;;10.78;87.81
9189;BME280;34313;50.780;6.084;2023-02-21T09:53:01;99887.47;;;10.59;88.22
9189;BME280;34313;50.780;6.084;2023-02-21T09:55:35;99908.00;;;10.70;88.78
9189;BME280;34313;50.780;6.084;2023-02-21T09:58:02;99911.06;;;10.78;88.47
9189;BME280;34313;50.780;6.084;2023-02-21T10:00:33;99909.50;;;10.91;87.69
9189;BME280;34313;50.780;6.084;2023-02-21T10:03:43;99902.66;;;11.21;85.31
9189;BME280;34313;50.780;6.084;2023-02-21T10:08:56;99896.00;;;11.93;82.12
9189;BME280;34313;50.780;6.084;2023-02-21T10:14:33;99893.03;;;11.67;82.55
9189;BME280;34313;50.780;6.084;2023-02-21T10:17:04;99887.59;;;11.23;84.30
9189;BME280;34313;50.780;6.084;2023-02-21T10:19:40;99891.34;;;11.66;83.13
9189;BME280;34313;50.780;6.084;2023-02-21T10:22:17;99896.00;;;12.23;80.44
9189;BME280;34313;50.780;6.084;2023-02-21T10:24:44;99889.97;;;12.66;78.88
9189;BME280;34313;50.780;6.084;2023-02-21T10:27:30;99882.22;;;13.06;76.59
9189;BME280;34313;50.780;6.084;2023-02-21T10:30:03;99880.03;;;12.98;75.57
9189;BME280;34313;50.780;6.084;2023-02-21T10:32:30;99868.97;;;13.20;74.91
9189;BME280;34313;50.780;6.084;2023-02-21T10:34:56;99868.00;;;13.21;74.45
9189;BME280;34313;50.780;6.084;2023-02-21T10:37:32;99873.00;;;13.40;74.09
9189;BME280;34313;50.780;6.084;2023-02-21T10:40:04;99871.75;;;13.46;73.08
9189;BME280;34313;50.780;6.084;2023-02-21T10:42:40;99869.31;;;13.43;73.11
9189;BME280;34313;50.780;6.084;2023-02-21T10:45:08;99872.22;;;13.53;73.81
9189;BME280;34313;50.780;6.084;2023-02-21T10:47:52;99869.66;;;13.66;73.14
9189;BME280;34313;50.780;6.084;2023-02-21T10:50:40;99870.03;;;13.59;72.51
9189;BME280;34313;50.780;6.084;2023-02-21T10:53:07;99867.53;;;13.43;73.23
9189;BME280;34313;50.780;6.084;2023-02-21T10:55:33;99873.38;;;13.49;73.46
9189;BME280;34313;50.780;6.084;2023-02-21T10:58:08;99872.53;;;13.48;72.50
9189;BME280;34313;50.780;6.084;2023-02-21T11:00:38;99868.72;;;13.52;72.72
9189;BME280;34313;50.780;6.084;2023-02-21T11:03:15;99863.16;;;13.42;73.09
9189;BME280;34313;50.780;6.084;2023-02-21T11:05:52;99856.31;;;12.97;75.05
9189;BME280;34313;50.780;6.084;2023-02-21T11:08:41;99859.13;;;13.22;74.94
9189;BME280;34313;50.780;6.084;2023-02-21T11:11:09;99861.22;;;13.32;73.99
9189;BME280;34313;50.780;6.084;2023-02-21T11:13:35;99862.91;;;13.33;73.56
9189;BME280;34313;50.780;6.084;2023-02-21T11:16:15;99857.13;;;13.26;74.56
9189;BME280;34313;50.780;6.084;2023-02-21T11:18:41;99850.81;;;13.14;75.15
9189;BME280;34313;50.780;6.084;2023-02-21T11:21:24;99841.84;;;13.02;75.73
9189;BME280;34313;50.780;6.084;2023-02-21T11:24:04;99837.88;;;12.95;75.82
9189;BME280;34313;50.780;6.084;2023-02-21T11:26:36;99837.50;;;13.01;76.29
9189;BME280;34313;50.780;6.084;2023-02-21T11:29:23;99834.50;;;12.93;76.36
9189;BME280;34313;50.780;6.084;2023-02-21T11:31:54;99834.88;;;13.01;76.38
9189;BME280;34313;50.780;6.084;2023-02-21T11:34:20;99813.78;;;13.00;75.86
9189;BME280;34313;50.780;6.084;2023-02-21T11:36:52;99825.22;;;13.00;75.94
9189;BME280;34313;50.780;6.084;2023-02-21T11:39:29;99819.66;;;13.05;76.05
9189;BME280;34313;50.780;6.084;2023-02-21T11:42:03;99816.56;;;12.84;75.81
9189;BME280;34313;50.780;6.084;2023-02-21T11:44:31;99815.06;;;12.80;75.83
9189;BME280;34313;50.780;6.084;2023-02-21T11:52:33;99803.63;;;13.21;75.69
9189;BME280;34313;50.780;6.084;2023-02-21T11:55:02;99805.97;;;13.40;74.94
9189;BME280;34313;50.780;6.084;2023-02-21T12:01:03;99786.84;;;13.49;75.04
9189;BME280;34313;50.780;6.084;2023-02-21T12:06:22;99786.56;;;13.67;74.81
9189;BME280;34313;50.780;6.084;2023-02-21T12:09:12;99784.38;;;13.73;74.10
9189;BME280;34313;50.780;6.084;2023-02-21T12:11:55;99787.56;;;13.78;73.88
9189;BME280;34313;50.780;6.084;2023-02-21T12:20:28;99765.22;;;13.28;75.91
9189;BME280;34313;50.780;6.084;2023-02-21T12:23:18;99760.34;;;13.49;76.10
9189;BME280;34313;50.780;6.084;2023-02-21T12:35:18;99754.19;;;14.02;76.64
9189;BME280;34313;50.780;6.084;2023-02-21T12:37:55;99749.13;;;14.11;76.48
9189;BME280;34313;50.780;6.084;2023-02-21T12:48:33;99743.59;;;14.02;76.73
9189;BME280;34313;50.780;6.084;2023-02-21T12:51:06;99737.44;;;14.01;76.75
9189;BME280;34313;50.780;6.084;2023-02-21T12:53:39;99740.59;;;13.93;76.59
9189;BME280;34313;50.780;6.084;2023-02-21T12:56:10;99729.81;;;13.96;76.51
9189;BME280;34313;50.780;6.084;2023-02-21T13:01:47;99737.13;;;13.80;77.45
9189;BME280;34313;50.780;6.084;2023-02-21T13:04:20;99727.47;;;13.66;78.39
9189;BME280;34313;50.780;6.084;2023-02-21T13:06:54;99734.50;;;13.40;79.40
9189;BME280;34313;50.780;6.084;2023-02-21T13:17:09;99717.78;;;13.39;79.50
9189;BME280;34313;50.780;6.084;2023-02-21T13:19:47;99715.38;;;13.08;81.09
9189;BME280;34313;50.780;6.084;2023-02-21T13:28:19;99714.97;;;13.01;82.62
9189;BME280;34313;50.780;6.084;2023-02-21T13:30:50;99710.66;;;12.85;83.42
9189;BME280;34313;50.780;6.084;2023-02-21T13:33:27;99696.91;;;12.93;83.24
9189;BME280;34313;50.780;6.084;2023-02-21T13:35:55;99690.53;;;13.10;83.03
9189;BME280;34313;50.780;6.084;2023-02-21T13:38:21;99681.00;;;13.35;85.04
9189;BME280;34313;50.780;6.084;2023-02-21T13:41:01;99675.41;;;13.39;82.49
9189;BME280;34313;50.780;6.084;2023-02-21T13:43:29;99662.97;;;13.27;81.58
9189;BME280;34313;50.780;6.084;2023-02-21T13:52:24;99677.66;;;13.71;80.27
9189;BME280;34313;50.780;6.084;2023-02-21T13:57:46;99673.63;;;13.53;80.58
9189;BME280;34313;50.780;6.084;2023-02-21T14:05:20;99667.03;;;13.58;80.04
9189;BME280;34313;50.780;6.084;2023-02-21T14:07:59;99669.59;;;13.47;80.53
9189;BME280;34313;50.780;6.084;2023-02-21T14:10:28;99671.94;;;13.52;80.29
9189;BME280;34313;50.780;6.084;2023-02-21T14:13:01;99665.66;;;13.40;81.41
9189;BME280;34313;50.780;6.084;2023-02-21T14:15:38;99664.19;;;13.36;81.46
9189;BME280;34313;50.780;6.084;2023-02-21T14:18:06;99665.91;;;13.22;82.01
9189;BME280;34313;50.780;6.084;2023-02-21T14:20:38;99662.97;;;13.27;81.66
9189;BME280;34313;50.780;6.084;2023-02-21T14:23:04;99657.66;;;13.27;81.93
9189;BME280;34313;50.780;6.084;2023-02-21T14:25:32;99652.53;;;13.11;82.63
9189;BME280;34313;50.780;6.084;2023-02-21T14:27:58;99646.91;;;13.03;82.26
9189;BME280;34313;50.780;6.084;2023-02-21T14:30:28;99671.13;;;12.97;83.07
9189;BME280;34313;50.780;6.084;2023-02-21T14:33:08;99661.34;;;12.84;83.46
9189;BME280;34313;50.780;6.084;2023-02-21T14:35:48;99666.53;;;12.86;84.17
9189;BME280;34313;50.780;6.084;2023-02-21T14:38:22;99654.91;;;12.89;84.61
9189;BME280;34313;50.780;6.084;2023-02-21T14:40:58;99655.94;;;12.86;84.61
9189;BME280;34313;50.780;6.084;2023-02-21T14:44:04;99656.66;;;12.75;84.62
9189;BME280;34313;50.780;6.084;2023-02-21T14:49:51;99653.31;;;12.59;86.07
9189;BME280;34313;50.780;6.084;2023-02-21T14:52:57;99651.41;;;12.61;85.91
9189;BME280;34313;50.780;6.084;2023-02-21T15:01:01;99661.69;;;12.24;87.90
9189;BME280;34313;50.780;6.084;2023-02-21T15:04:16;99657.25;;;12.10;89.00
9189;BME280;34313;50.780;6.084;2023-02-21T15:06:58;99654.78;;;12.07;89.67
9189;BME280;34313;50.780;6.084;2023-02-21T15:09:25;99653.00;;;12.07;89.60
9189;BME280;34313;50.780;6.084;2023-02-21T15:11:50;99660.00;;;11.94;90.55
9189;BME280;34313;50.780;6.084;2023-02-21T15:14:22;99648.34;;;11.68;91.04
9189;BME280;34313;50.780;6.084;2023-02-21T15:16:52;99656.34;;;11.66;91.64
9189;BME280;34313;50.780;6.084;2023-02-21T15:19:22;99662.00;;;11.60;92.27
9189;BME280;34313;50.780;6.084;2023-02-21T15:24:30;99655.28;;;11.40;93.56
9189;BME280;34313;50.780;6.084;2023-02-21T15:27:15;99656.19;;;11.39;94.16
9189;BME280;34313;50.780;6.084;2023-02-21T15:29:41;99657.00;;;11.25;94.85
9189;BME280;34313;50.780;6.084;2023-02-21T15:32:06;99637.59;;;11.12;95.05
9189;BME280;34313;50.780;6.084;2023-02-21T15:34:39;99654.16;;;11.14;95.92